createdAt,value
2018-01-23T00:01:40.247Z,4.90
2018-01-23T00:04:06.449Z,4.80
2018-01-23T00:06:33.367Z,4.80
2018-01-23T00:09:00.372Z,4.80
2018-01-23T00:11:26.543Z,4.90
2018-01-23T00:13:52.759Z,4.90
2018-01-23T00:16:19.023Z,4.90
2018-01-23T00:18:45.964Z,4.90
2018-01-23T00:21:12.155Z,4.90
2018-01-23T00:23:38.364Z,4.90
2018-01-23T00:26:05.332Z,4.90
2018-01-23T00:28:31.552Z,4.90
2018-01-23T00:30:58.551Z,4.80
2018-01-23T00:33:24.742Z,4.80
2018-01-23T00:35:50.962Z,4.70
2018-01-23T00:38:17.216Z,4.70
2018-01-23T00:40:43.476Z,4.70
2018-01-23T00:43:09.703Z,4.70
2018-01-23T00:45:35.936Z,4.70
2018-01-23T00:48:02.137Z,4.70
2018-01-23T00:50:28.375Z,4.70
2018-01-23T00:52:55.317Z,4.70
2018-01-23T00:55:22.275Z,4.70
2018-01-23T00:57:48.431Z,4.70
2018-01-23T01:00:14.623Z,4.60
2018-01-23T01:02:40.827Z,4.60
2018-01-23T01:05:06.995Z,4.60
2018-01-23T01:07:33.192Z,4.60
2018-01-23T01:09:59.477Z,4.60
2018-01-23T01:12:26.423Z,4.50
2018-01-23T01:14:52.727Z,4.50
2018-01-23T01:17:18.911Z,4.40
2018-01-23T01:19:45.836Z,4.30
2018-01-23T01:22:12.112Z,4.30
2018-01-23T01:24:38.339Z,4.30
2018-01-23T01:27:04.601Z,4.30
2018-01-23T01:29:30.795Z,4.30
2018-01-23T01:31:57.754Z,4.30
2018-01-23T01:34:23.965Z,4.30
2018-01-23T01:36:50.931Z,4.40
2018-01-23T01:39:17.880Z,4.40
2018-01-23T01:41:44.163Z,4.40
2018-01-23T01:44:10.392Z,4.50
2018-01-23T01:46:36.579Z,4.50
2018-01-23T01:49:03.508Z,4.60
2018-01-23T01:51:30.512Z,4.60
2018-01-23T01:53:56.723Z,4.60
2018-01-23T01:56:23.668Z,4.70
2018-01-23T01:58:50.651Z,4.70
2018-01-23T02:01:16.838Z,4.70
2018-01-23T02:03:43.772Z,4.80
2018-01-23T02:06:09.976Z,4.80
2018-01-23T02:08:36.189Z,4.80
2018-01-23T02:11:02.391Z,4.80
2018-01-23T02:13:28.609Z,4.80
2018-01-23T02:15:54.824Z,4.80
2018-01-23T02:18:21.058Z,4.80
2018-01-23T02:20:47.267Z,4.70
2018-01-23T02:23:13.465Z,4.70
2018-01-23T02:25:40.406Z,4.70
2018-01-23T02:28:07.364Z,4.70
2018-01-23T02:30:34.287Z,4.70
2018-01-23T02:33:00.501Z,4.70
2018-01-23T02:35:26.729Z,4.70
2018-01-23T02:37:52.936Z,4.70
2018-01-23T02:40:19.887Z,4.70
2018-01-23T02:42:46.165Z,4.70
2018-01-23T02:45:12.442Z,4.70
2018-01-23T02:47:39.393Z,4.60
2018-01-23T02:50:05.626Z,4.60
2018-01-23T02:52:32.562Z,4.60
2018-01-23T02:54:58.771Z,4.50
2018-01-23T02:57:24.963Z,4.50
2018-01-23T02:59:51.193Z,4.40
2018-01-23T03:02:17.389Z,4.40
2018-01-23T03:04:43.619Z,4.40
2018-01-23T03:07:09.812Z,4.40
2018-01-23T03:09:36.150Z,4.40
2018-01-23T03:12:02.796Z,4.40
2018-01-23T03:14:28.991Z,4.50
2018-01-23T03:16:55.219Z,4.50
2018-01-23T03:19:21.441Z,4.50
2018-01-23T03:21:47.625Z,4.60
2018-01-23T03:24:13.815Z,4.60
2018-01-23T03:26:41.505Z,4.60
2018-01-23T03:29:08.483Z,4.60
2018-01-23T03:31:34.671Z,4.60
2018-01-23T03:34:00.881Z,4.60
2018-01-23T03:36:27.096Z,4.60
2018-01-23T03:38:53.307Z,4.60
2018-01-23T03:41:19.545Z,4.60
2018-01-23T03:43:45.817Z,4.50
2018-01-23T03:46:12.057Z,4.50
2018-01-23T03:48:38.295Z,4.50
2018-01-23T03:51:04.515Z,4.40
2018-01-23T03:53:30.749Z,4.40
2018-01-23T03:55:57.825Z,4.40
2018-01-23T03:58:24.047Z,4.40
2018-01-23T04:00:50.252Z,4.40
2018-01-23T04:03:16.502Z,4.50
2018-01-23T04:05:42.759Z,4.40
2018-01-23T04:08:08.957Z,4.30
2018-01-23T04:10:35.164Z,4.30
2018-01-23T04:13:02.107Z,4.30
2018-01-23T04:15:29.065Z,4.30
2018-01-23T04:17:56.004Z,4.30
2018-01-23T04:20:22.922Z,4.20
2018-01-23T04:22:49.183Z,4.30
2018-01-23T04:25:15.395Z,4.30
2018-01-23T04:27:41.620Z,4.30
2018-01-23T04:30:09.331Z,4.30
2018-01-23T04:32:36.332Z,4.30
2018-01-23T04:35:02.531Z,4.30
2018-01-23T04:37:28.757Z,4.30
2018-01-23T04:39:55.888Z,4.30
2018-01-23T04:42:22.075Z,4.30
2018-01-23T04:44:49.256Z,4.30
2018-01-23T04:47:15.501Z,4.30
2018-01-23T04:49:41.731Z,4.20
2018-01-23T04:52:07.968Z,4.30
2018-01-23T04:54:34.163Z,4.30
2018-01-23T04:57:00.388Z,4.30
2018-01-23T04:59:26.596Z,4.40
2018-01-23T05:01:53.596Z,4.30
2018-01-23T05:04:19.815Z,4.30
2018-01-23T05:06:46.024Z,4.30
2018-01-23T05:09:12.995Z,4.30
2018-01-23T05:11:39.224Z,4.30
2018-01-23T05:14:05.424Z,4.30
2018-01-23T05:16:32.416Z,4.40
2018-01-23T05:18:58.603Z,4.40
2018-01-23T05:21:24.812Z,4.40
2018-01-23T05:23:51.025Z,4.50
2018-01-23T05:26:17.216Z,4.50
2018-01-23T05:28:44.152Z,4.60
2018-01-23T05:31:10.393Z,4.60
2018-01-23T05:33:36.668Z,4.60
2018-01-23T05:36:03.613Z,4.70
2018-01-23T05:38:29.852Z,4.70
2018-01-23T05:40:56.108Z,4.70
2018-01-23T05:43:22.319Z,4.80
2018-01-23T05:45:48.599Z,4.80
2018-01-23T05:48:14.827Z,4.80
2018-01-23T05:50:41.054Z,4.80
2018-01-23T05:53:07.285Z,4.90
2018-01-23T05:55:33.524Z,4.90
2018-01-23T05:57:59.714Z,4.90
2018-01-23T06:00:26.683Z,4.80
2018-01-23T06:02:59.809Z,4.90
2018-01-23T06:05:25.997Z,4.80
2018-01-23T06:07:52.951Z,4.80
2018-01-23T06:10:19.940Z,4.80
2018-01-23T06:12:46.133Z,4.80
2018-01-23T06:15:13.093Z,4.80
2018-01-23T06:17:39.304Z,4.80
2018-01-23T06:20:05.492Z,4.80
2018-01-23T06:22:31.758Z,4.80
2018-01-23T06:24:57.975Z,4.70
2018-01-23T06:27:24.148Z,4.70
2018-01-23T06:29:51.111Z,4.70
2018-01-23T06:32:18.117Z,4.60
2018-01-23T06:34:44.320Z,4.60
2018-01-23T06:37:10.564Z,4.60
2018-01-23T06:39:36.760Z,4.60
2018-01-23T06:42:03.004Z,4.60
2018-01-23T06:44:29.231Z,4.60
2018-01-23T06:46:55.491Z,4.60
2018-01-23T06:49:21.727Z,4.70
2018-01-23T06:51:47.945Z,4.70
2018-01-23T06:54:14.164Z,4.70
2018-01-23T06:56:41.099Z,4.80
2018-01-23T06:59:07.304Z,4.80
2018-01-23T07:01:33.511Z,4.90
2018-01-23T07:03:59.700Z,4.90
2018-01-23T07:06:25.909Z,5.00
2018-01-23T07:08:52.128Z,5.00
2018-01-23T07:11:18.324Z,5.10
2018-01-23T07:13:45.249Z,5.10
2018-01-23T07:16:12.943Z,5.10
2018-01-23T07:18:39.912Z,5.20
2018-01-23T07:21:06.144Z,5.20
2018-01-23T07:23:33.096Z,5.20
2018-01-23T07:25:59.329Z,5.20
2018-01-23T07:28:25.589Z,5.20
2018-01-23T07:30:51.802Z,5.20
2018-01-23T07:33:18.013Z,5.20
2018-01-23T07:35:44.994Z,5.30
2018-01-23T07:38:11.304Z,5.30
2018-01-23T07:40:38.358Z,5.40
2018-01-23T07:43:05.298Z,5.30
2018-01-23T07:45:32.255Z,5.40
2018-01-23T07:47:58.572Z,5.40
2018-01-23T07:50:25.546Z,5.40
2018-01-23T07:52:51.824Z,5.40
2018-01-23T07:55:18.028Z,5.40
2018-01-23T07:57:44.223Z,5.40
2018-01-23T08:00:10.408Z,5.50
2018-01-23T08:02:36.653Z,5.50
2018-01-23T08:05:02.873Z,5.50
2018-01-23T08:10:02.091Z,5.60
2018-01-23T08:12:29.059Z,5.60
2018-01-23T08:14:55.259Z,5.60
2018-01-23T08:17:22.211Z,5.70
2018-01-23T08:19:49.144Z,5.70
2018-01-23T08:22:15.333Z,5.70
2018-01-23T08:24:41.536Z,5.70
2018-01-23T08:27:07.766Z,5.70
2018-01-23T08:29:34.687Z,5.70
2018-01-23T08:32:00.890Z,5.70
2018-01-23T08:34:27.087Z,5.70
2018-01-23T08:36:54.026Z,5.80
2018-01-23T08:39:20.967Z,5.80
2018-01-23T08:41:47.172Z,5.70
2018-01-23T08:44:13.401Z,5.70
2018-01-23T08:46:39.592Z,5.70
2018-01-23T08:49:05.934Z,5.70
2018-01-23T08:51:32.163Z,5.70
2018-01-23T08:53:59.107Z,5.70
2018-01-23T08:56:26.055Z,5.80
2018-01-23T08:58:52.995Z,5.80
2018-01-23T09:01:19.198Z,5.70
2018-01-23T09:03:45.535Z,5.90
2018-01-23T09:06:11.774Z,5.90
2018-01-23T09:08:38.011Z,6.00
2018-01-23T09:11:04.252Z,6.00
2018-01-23T09:13:30.451Z,6.00
2018-01-23T09:15:56.658Z,6.10
2018-01-23T09:18:23.612Z,6.20
2018-01-23T09:20:50.561Z,6.20
2018-01-23T09:23:16.716Z,6.20
2018-01-23T09:25:42.973Z,6.30
2018-01-23T09:28:09.140Z,6.30
2018-01-23T09:30:35.333Z,6.30
2018-01-23T09:33:01.554Z,6.40
2018-01-23T09:35:27.821Z,6.50
2018-01-23T09:37:54.872Z,6.60
2018-01-23T09:40:21.076Z,6.60
2018-01-23T09:42:47.288Z,6.70
2018-01-23T09:45:13.525Z,6.70
2018-01-23T09:47:39.742Z,6.80
2018-01-23T09:50:06.861Z,6.90
2018-01-23T09:52:33.072Z,6.80
2018-01-23T09:54:59.308Z,6.90
2018-01-23T09:57:25.497Z,7.00
2018-01-23T09:59:52.438Z,7.00
2018-01-23T10:02:19.471Z,7.10
2018-01-23T10:04:45.671Z,7.10
2018-01-23T10:07:11.860Z,7.10
2018-01-23T10:09:38.061Z,7.20
2018-01-23T10:12:04.271Z,7.20
2018-01-23T10:14:30.446Z,7.20
2018-01-23T10:16:56.672Z,7.30
2018-01-23T10:19:22.885Z,7.30
2018-01-23T10:21:49.045Z,7.30
2018-01-23T10:24:15.252Z,7.30
2018-01-23T10:26:41.432Z,7.40
2018-01-23T10:29:07.644Z,7.40
2018-01-23T10:31:33.837Z,7.40
2018-01-23T10:34:00.032Z,7.40
2018-01-23T10:36:26.996Z,7.50
2018-01-23T10:39:01.076Z,7.50
2018-01-23T10:41:27.300Z,7.50
2018-01-23T10:43:54.283Z,7.50
2018-01-23T10:46:20.524Z,7.50
2018-01-23T10:48:47.464Z,7.50
2018-01-23T10:51:14.497Z,7.50
2018-01-23T10:53:40.728Z,7.50
2018-01-23T10:56:06.956Z,7.60
2018-01-23T10:58:33.152Z,7.50
2018-01-23T11:01:06.295Z,7.60
2018-01-23T11:03:32.664Z,7.60
2018-01-23T11:05:58.963Z,7.60
2018-01-23T11:08:25.256Z,7.70
2018-01-23T11:10:51.453Z,7.60
2018-01-23T11:13:17.715Z,7.60
2018-01-23T11:15:43.936Z,7.60
2018-01-23T11:18:10.993Z,7.70
2018-01-23T11:20:37.293Z,7.70
2018-01-23T11:23:03.794Z,7.70
2018-01-23T11:25:30.983Z,7.60
2018-01-23T11:27:57.164Z,7.60
2018-01-23T11:30:24.107Z,7.60
2018-01-23T11:32:51.044Z,7.60
2018-01-23T11:35:17.996Z,7.60
2018-01-23T11:37:44.936Z,7.60
2018-01-23T11:40:11.264Z,7.60
2018-01-23T11:42:37.515Z,7.60
2018-01-23T11:45:04.508Z,7.70
2018-01-23T11:47:30.717Z,7.70
2018-01-23T11:49:56.916Z,7.70
2018-01-23T11:52:23.203Z,7.80
2018-01-23T11:54:49.432Z,7.90
2018-01-23T11:57:16.350Z,7.90
2018-01-23T11:59:42.583Z,7.90
2018-01-23T12:02:08.952Z,8.00
2018-01-23T12:04:35.981Z,8.10
2018-01-23T12:07:02.256Z,8.00
2018-01-23T12:09:28.450Z,8.10
2018-01-23T12:11:55.424Z,8.10
2018-01-23T12:14:22.375Z,8.20
2018-01-23T12:16:49.331Z,8.20
2018-01-23T12:19:15.543Z,8.20
2018-01-23T12:21:41.784Z,8.20
2018-01-23T12:24:08.721Z,8.30
2018-01-23T12:26:34.928Z,8.30
2018-01-23T12:29:01.184Z,8.30
2018-01-23T12:31:27.504Z,8.40
2018-01-23T12:33:53.757Z,8.40
2018-01-23T12:36:20.744Z,8.50
2018-01-23T12:38:47.676Z,8.50
2018-01-23T12:41:13.872Z,8.50
2018-01-23T12:43:40.144Z,8.50
2018-01-23T12:46:06.335Z,8.50
2018-01-23T12:48:32.543Z,8.50
2018-01-23T12:50:58.768Z,8.50
2018-01-23T12:53:25.027Z,8.60
2018-01-23T12:55:51.368Z,8.60
2018-01-23T12:58:17.711Z,8.60
2018-01-23T13:00:43.904Z,8.60
2018-01-23T13:03:10.854Z,8.60
2018-01-23T13:05:37.823Z,8.60
2018-01-23T13:08:04.888Z,8.60
2018-01-23T13:10:31.076Z,8.60
2018-01-23T13:12:57.345Z,8.60
2018-01-23T13:15:23.645Z,8.60
2018-01-23T13:17:49.808Z,8.60
2018-01-23T13:20:16.050Z,8.60
2018-01-23T13:22:43.022Z,8.60
2018-01-23T13:25:09.221Z,8.60
2018-01-23T13:27:36.164Z,8.60
2018-01-23T13:30:03.124Z,8.60
2018-01-23T13:32:30.044Z,8.60
2018-01-23T13:34:57.018Z,8.60
2018-01-23T13:37:23.220Z,8.60
2018-01-23T13:39:49.418Z,8.60
2018-01-23T13:42:15.636Z,8.50
2018-01-23T13:44:41.859Z,8.50
2018-01-23T13:47:08.822Z,8.50
2018-01-23T13:49:35.124Z,8.50
2018-01-23T13:52:02.197Z,8.50
2018-01-23T13:54:29.240Z,8.50
2018-01-23T13:56:55.499Z,8.50
2018-01-23T13:59:22.594Z,8.50
2018-01-23T14:01:48.828Z,8.50
2018-01-23T14:04:15.141Z,8.50
2018-01-23T14:06:41.346Z,8.50
2018-01-23T14:09:07.640Z,8.60
2018-01-23T14:11:34.038Z,8.60
2018-01-23T14:14:00.298Z,8.60
2018-01-23T14:16:26.507Z,8.60
2018-01-23T14:18:52.755Z,8.60
2018-01-23T14:21:18.986Z,8.60
2018-01-23T14:23:45.279Z,8.60
2018-01-23T14:26:11.519Z,8.60
2018-01-23T14:28:40.935Z,8.60
2018-01-23T14:31:07.344Z,8.60
2018-01-23T14:33:33.600Z,8.50
2018-01-23T14:36:00.562Z,8.50
2018-01-23T14:38:27.498Z,8.50
2018-01-23T14:40:53.701Z,8.50
2018-01-23T14:43:19.888Z,8.50
2018-01-23T14:45:46.891Z,8.50
2018-01-23T14:48:13.868Z,8.60
2018-01-23T14:50:40.808Z,8.50
2018-01-23T14:53:07.044Z,8.50
2018-01-23T14:55:34.098Z,8.50
2018-01-23T14:58:01.061Z,8.50
2018-01-23T15:00:28.546Z,8.50
2018-01-23T15:02:55.996Z,8.50
2018-01-23T15:05:22.211Z,8.50
2018-01-23T15:07:48.423Z,8.40
2018-01-23T15:10:14.603Z,8.40
2018-01-23T15:12:40.835Z,8.40
2018-01-23T15:15:07.781Z,8.30
2018-01-23T15:17:34.031Z,8.30
2018-01-23T15:20:01.179Z,8.40
2018-01-23T15:22:27.375Z,8.40
2018-01-23T15:24:53.645Z,8.40
2018-01-23T15:27:19.893Z,8.40
2018-01-23T15:29:46.148Z,8.40
2018-01-23T15:32:12.503Z,8.30
2018-01-23T15:34:39.482Z,8.40
2018-01-23T15:37:05.742Z,8.40
2018-01-23T15:39:32.672Z,8.30
2018-01-23T15:41:58.890Z,8.30
2018-01-23T15:44:26.092Z,8.30
2018-01-23T15:47:00.073Z,8.30
2018-01-23T15:49:27.024Z,8.30
2018-01-23T15:51:53.250Z,8.30
2018-01-23T15:54:27.216Z,8.30
2018-01-23T15:56:54.208Z,8.30
2018-01-23T15:59:21.256Z,8.30
2018-01-23T16:01:47.540Z,8.30
2018-01-23T16:04:14.457Z,8.30
2018-01-23T16:06:40.651Z,8.20
2018-01-23T16:09:06.909Z,8.20
2018-01-23T16:11:33.184Z,8.20
2018-01-23T16:14:00.158Z,8.20
2018-01-23T16:16:27.071Z,8.20
2018-01-23T16:18:54.041Z,8.20
2018-01-23T16:21:20.962Z,8.30
2018-01-23T16:23:47.213Z,8.20
2018-01-23T16:26:14.251Z,8.20
2018-01-23T16:28:41.250Z,8.20
2018-01-23T16:31:07.507Z,8.20
2018-01-23T16:33:33.816Z,8.20
2018-01-23T16:36:00.057Z,8.20
2018-01-23T16:38:26.279Z,8.20
2018-01-23T16:40:52.543Z,8.20
2018-01-23T16:43:18.767Z,8.10
2018-01-23T16:45:45.784Z,8.20
2018-01-23T16:48:12.831Z,8.10
2018-01-23T16:50:39.104Z,8.10
2018-01-23T16:53:05.301Z,8.10
2018-01-23T16:55:31.473Z,8.10
2018-01-23T16:57:57.755Z,8.10
2018-01-23T17:00:24.825Z,8.10
2018-01-23T17:02:51.060Z,8.10
2018-01-23T17:05:17.232Z,8.10
2018-01-23T17:07:43.428Z,8.10
2018-01-23T17:10:10.380Z,8.10
2018-01-23T17:12:36.606Z,8.10
2018-01-23T17:15:02.831Z,8.10
2018-01-23T17:17:29.036Z,8.10
2018-01-23T17:19:55.300Z,8.10
2018-01-23T17:22:21.512Z,8.00
2018-01-23T17:24:47.689Z,8.10
2018-01-23T17:27:14.629Z,8.10
2018-01-23T17:29:40.833Z,8.10
2018-01-23T17:32:07.112Z,8.20
2018-01-23T17:34:34.043Z,8.20
2018-01-23T17:37:00.997Z,8.10
2018-01-23T17:39:27.228Z,8.20
2018-01-23T17:41:54.168Z,8.10
2018-01-23T17:44:20.360Z,8.10
2018-01-23T17:46:46.532Z,8.10
2018-01-23T17:49:12.727Z,8.10
2018-01-23T17:51:38.935Z,8.10
2018-01-23T17:54:05.851Z,8.10
2018-01-23T17:56:32.030Z,8.10
2018-01-23T20:23:00.065Z,7.80
2018-01-23T20:27:54.836Z,7.80
2018-01-23T20:30:21.275Z,7.80
2018-01-23T20:32:47.627Z,7.80
2018-01-23T20:35:14.133Z,7.80
2018-01-23T20:37:41.551Z,7.80
2018-01-23T20:40:08.424Z,7.80
2018-01-23T20:42:34.744Z,7.80
2018-01-23T20:45:01.244Z,7.80
2018-01-23T20:47:27.704Z,7.80
2018-01-23T20:49:54.003Z,7.90
2018-01-23T20:52:20.394Z,7.80
2018-01-23T20:54:46.996Z,7.90
2018-01-23T20:57:13.372Z,7.80
2018-01-23T20:59:40.440Z,7.80
2018-01-23T21:02:06.745Z,7.80
2018-01-23T21:04:33.139Z,7.80
2018-01-23T21:06:59.625Z,7.80
2018-01-23T21:09:26.730Z,7.90
2018-01-23T21:11:52.948Z,7.90
2018-01-23T21:14:19.325Z,7.90
2018-01-23T21:16:46.414Z,7.90
2018-01-23T21:19:12.777Z,8.00
2018-01-23T21:21:39.155Z,8.00
2018-01-23T21:24:06.046Z,8.00
2018-01-23T21:26:33.344Z,8.10
2018-01-23T21:28:59.786Z,8.10
2018-01-23T21:31:26.134Z,8.10
2018-01-23T21:33:52.428Z,8.10
2018-01-23T21:36:18.866Z,8.10
2018-01-23T21:38:45.278Z,8.10
2018-01-23T21:41:11.739Z,8.10
2018-01-23T21:43:38.106Z,8.20
2018-01-23T21:46:04.380Z,8.20
2018-01-23T21:48:30.856Z,8.20
2018-01-23T21:50:58.044Z,8.20
2018-01-23T21:53:24.467Z,8.20
2018-01-23T21:55:51.648Z,8.30
2018-01-23T21:58:17.940Z,8.30
2018-01-23T22:00:44.140Z,8.30
2018-01-23T22:03:10.345Z,8.30
2018-01-23T22:05:43.408Z,8.30
2018-01-23T22:08:09.602Z,8.30
2018-01-23T22:10:36.537Z,8.30
2018-01-23T22:13:02.735Z,8.30
2018-01-23T22:15:29.153Z,8.30
2018-01-23T22:17:55.496Z,8.30
2018-01-23T22:20:21.700Z,8.30
2018-01-23T22:22:47.896Z,8.40
2018-01-23T22:25:14.175Z,8.40
2018-01-23T22:27:40.400Z,8.40
2018-01-23T22:30:07.415Z,8.40
2018-01-23T22:32:40.634Z,8.40
2018-01-23T22:35:07.588Z,8.40
2018-01-23T22:37:34.518Z,8.40
2018-01-23T22:40:00.716Z,8.40
2018-01-23T22:42:26.897Z,8.40
2018-01-23T22:44:54.879Z,8.40
2018-01-23T22:47:22.257Z,8.50
2018-01-23T22:49:48.483Z,8.40
2018-01-23T22:52:15.422Z,8.50
2018-01-23T22:54:41.619Z,8.50
2018-01-23T22:57:07.825Z,8.50
2018-01-23T22:59:34.024Z,8.50
2018-01-23T23:02:00.997Z,8.60
2018-01-23T23:04:27.911Z,8.60
2018-01-23T23:06:54.092Z,8.60
2018-01-23T23:09:20.296Z,8.60
2018-01-23T23:11:46.508Z,8.60
2018-01-23T23:14:13.455Z,8.70
2018-01-23T23:16:40.467Z,8.60
2018-01-23T23:19:06.652Z,8.70
2018-01-23T23:21:33.591Z,8.70
2018-01-23T23:23:59.846Z,8.70
2018-01-23T23:26:27.676Z,8.80
2018-01-23T23:28:53.895Z,8.70
2018-01-23T23:31:20.142Z,8.80
2018-01-23T23:33:46.327Z,8.80
2018-01-23T23:36:12.533Z,8.80
2018-01-23T23:38:39.500Z,8.80
2018-01-23T23:41:05.698Z,8.90
2018-01-23T23:43:31.913Z,8.90
2018-01-23T23:45:58.189Z,8.90
2018-01-23T23:48:25.131Z,8.90
2018-01-23T23:50:51.308Z,8.80
2018-01-23T23:53:18.236Z,9.00
2018-01-23T23:55:45.179Z,9.10
2018-01-23T23:58:11.407Z,9.00
